createdAt,value
2022-08-26T00:01:54.053Z,100084.44
2022-08-26T00:04:23.741Z,100081.25
2022-08-26T00:06:52.026Z,100078.56
2022-08-26T00:09:19.297Z,100079.75
2022-08-26T00:11:46.361Z,100076.44
2022-08-26T00:14:15.988Z,100090.84
2022-08-26T00:16:47.887Z,100088.94
2022-08-26T00:19:21.392Z,100087.97
2022-08-26T00:21:49.831Z,100061.84
2022-08-26T00:24:21.831Z,100082.25
2022-08-26T00:26:49.854Z,100074.44
2022-08-26T00:29:17.596Z,100081.19
2022-08-26T00:31:45.196Z,100075.44
2022-08-26T00:34:13.183Z,100070.09
2022-08-26T00:36:41.153Z,100080.47
2022-08-26T00:39:08.650Z,100087.63
2022-08-26T00:41:39.207Z,100087.34
2022-08-26T00:44:07.256Z,100085.13
2022-08-26T00:46:39.811Z,100084.84
2022-08-26T00:49:23.627Z,100091.03
2022-08-26T00:51:57.124Z,100091.31
2022-08-26T00:54:27.367Z,100095.63
2022-08-26T00:57:08.675Z,100068.72
2022-08-26T00:59:45.465Z,100081.66
2022-08-26T01:02:20.960Z,100071.75
2022-08-26T01:04:55.528Z,100066.22
2022-08-26T01:07:30.250Z,100066.28
2022-08-26T01:10:01.094Z,100078.31
2022-08-26T01:12:38.818Z,100060.38
2022-08-26T01:15:13.793Z,100063.28
2022-08-26T01:17:41.598Z,100061.47
2022-08-26T01:20:49.753Z,100075.75
2022-08-26T01:23:17.239Z,100071.25
2022-08-26T01:25:50.718Z,100076.16
2022-08-26T01:28:24.187Z,100076.16
2022-08-26T01:30:53.519Z,100076.09
2022-08-26T01:33:29.687Z,100069.19
2022-08-26T01:36:08.487Z,100067.84
2022-08-26T01:38:35.883Z,100075.41
2022-08-26T01:41:04.668Z,100074.84
2022-08-26T01:43:46.973Z,100058.81
2022-08-26T01:46:17.493Z,100076.66
2022-08-26T01:48:46.203Z,100055.00
2022-08-26T01:51:17.132Z,100071.91
2022-08-26T01:53:45.968Z,100063.63
2022-08-26T01:56:14.713Z,100075.81
2022-08-26T01:59:03.521Z,100074.13
2022-08-26T02:01:31.603Z,100071.63
2022-08-26T02:04:19.174Z,100074.91
2022-08-26T02:06:48.035Z,100063.56
2022-08-26T02:09:16.563Z,100074.97
2022-08-26T02:11:45.223Z,100067.47
2022-08-26T02:14:19.984Z,100055.06
2022-08-26T02:16:50.340Z,100074.81
2022-08-26T02:19:30.204Z,100079.81
2022-08-26T02:22:00.469Z,100064.25
2022-08-26T02:24:46.386Z,100075.81
2022-08-26T02:27:14.908Z,100078.75
2022-08-26T02:29:46.629Z,100082.38
2022-08-26T02:32:18.506Z,100083.59
2022-08-26T02:34:46.549Z,100082.91
2022-08-26T02:37:14.341Z,100084.88
2022-08-26T02:39:44.664Z,100078.97
2022-08-26T02:42:12.009Z,100077.53
2022-08-26T02:44:39.176Z,100097.41
2022-08-26T02:47:07.953Z,100074.75
2022-08-26T02:49:35.021Z,100092.59
2022-08-26T02:52:02.125Z,100103.22
2022-08-26T02:54:29.259Z,100094.47
2022-08-26T02:56:56.399Z,100089.50
2022-08-26T02:59:24.675Z,100087.25
2022-08-26T03:01:52.451Z,100095.97
2022-08-26T03:04:25.866Z,100086.47
2022-08-26T03:06:53.719Z,100101.34
2022-08-26T03:09:23.469Z,100103.38
2022-08-26T03:11:51.296Z,100093.72
2022-08-26T03:14:18.556Z,100103.38
2022-08-26T03:16:48.456Z,100102.69
2022-08-26T03:19:17.611Z,100104.34
2022-08-26T03:21:44.871Z,100110.59
2022-08-26T03:24:15.849Z,100106.19
2022-08-26T03:26:52.621Z,100117.00
2022-08-26T03:29:39.765Z,100096.91
2022-08-26T03:32:07.368Z,100101.06
2022-08-26T03:34:35.469Z,100084.66
2022-08-26T03:37:02.522Z,100110.16
2022-08-26T03:39:31.543Z,100116.88
2022-08-26T03:41:59.102Z,100111.06
2022-08-26T03:44:26.765Z,100117.19
2022-08-26T03:46:54.984Z,100099.41
2022-08-26T03:49:22.479Z,100105.09
2022-08-26T03:51:50.165Z,100107.78
2022-08-26T03:54:18.044Z,100107.97
2022-08-26T03:56:46.539Z,100102.81
2022-08-26T03:59:13.731Z,100120.47
2022-08-26T04:01:41.033Z,100107.34
2022-08-26T04:04:08.643Z,100109.19
2022-08-26T04:06:39.167Z,100115.56
2022-08-26T04:09:10.331Z,100108.09
2022-08-26T04:11:39.608Z,100104.94
2022-08-26T04:14:10.371Z,100113.13
2022-08-26T04:16:37.401Z,100115.09
2022-08-26T04:19:09.221Z,100091.91
2022-08-26T04:21:38.426Z,100085.56
2022-08-26T04:24:11.359Z,100108.59
2022-08-26T04:26:42.614Z,100101.81
2022-08-26T04:29:14.415Z,100108.34
2022-08-26T04:31:42.230Z,100108.38
2022-08-26T04:34:10.928Z,100093.06
2022-08-26T04:36:38.705Z,100093.44
2022-08-26T04:39:05.833Z,100114.84
2022-08-26T04:41:34.136Z,100108.81
2022-08-26T04:44:02.532Z,100110.47
2022-08-26T04:46:30.034Z,100104.59
2022-08-26T04:48:57.295Z,100111.03
2022-08-26T04:51:28.311Z,100098.25
2022-08-26T04:53:59.552Z,100100.41
2022-08-26T04:56:29.073Z,100086.63
2022-08-26T04:58:56.640Z,100100.75
2022-08-26T05:01:24.450Z,100100.25
2022-08-26T05:03:51.755Z,100104.25
2022-08-26T05:06:20.710Z,100106.75
2022-08-26T05:08:49.194Z,100096.50
2022-08-26T05:11:16.337Z,100101.16
2022-08-26T05:13:43.445Z,100101.56
2022-08-26T05:16:13.857Z,100108.22
2022-08-26T05:18:43.679Z,100101.75
2022-08-26T05:21:23.810Z,100098.81
2022-08-26T05:23:51.626Z,100115.09
2022-08-26T05:26:23.129Z,100108.94
2022-08-26T05:28:51.203Z,100123.22
2022-08-26T05:31:31.578Z,100114.31
2022-08-26T05:34:00.457Z,100107.13
2022-08-26T05:36:34.468Z,100124.09
2022-08-26T05:39:04.338Z,100110.88
2022-08-26T05:41:36.256Z,100124.22
2022-08-26T05:44:07.262Z,100106.75
2022-08-26T05:46:35.657Z,100126.50
2022-08-26T05:49:05.681Z,100123.13
2022-08-26T05:51:35.125Z,100121.28
2022-08-26T05:54:04.027Z,100126.34
2022-08-26T05:56:31.191Z,100134.91
2022-08-26T05:58:58.707Z,100126.13
2022-08-26T06:01:28.619Z,100124.72
2022-08-26T06:03:59.700Z,100114.88
2022-08-26T06:06:32.708Z,100127.00
2022-08-26T06:09:02.133Z,100129.47
2022-08-26T06:11:32.277Z,100117.41
2022-08-26T06:14:03.898Z,100123.31
2022-08-26T06:16:34.781Z,100122.31
2022-08-26T06:19:03.535Z,100112.78
2022-08-26T06:21:40.274Z,100123.25
2022-08-26T06:24:29.224Z,100128.28
2022-08-26T06:27:02.719Z,100106.84
2022-08-26T06:29:33.740Z,100105.13
2022-08-26T06:32:02.818Z,100085.88
2022-08-26T06:34:30.817Z,100100.69
2022-08-26T06:37:02.695Z,100129.25
2022-08-26T06:39:31.806Z,100130.09
2022-08-26T06:42:00.818Z,100119.13
2022-08-26T06:44:34.580Z,100127.88
2022-08-26T06:47:01.693Z,100121.16
2022-08-26T06:49:28.791Z,100126.66
2022-08-26T06:51:59.745Z,100124.19
2022-08-26T06:54:28.927Z,100086.44
2022-08-26T06:56:57.252Z,100129.22
2022-08-26T06:59:25.010Z,100118.50
2022-08-26T07:01:52.536Z,100128.94
2022-08-26T07:04:23.157Z,100124.19
2022-08-26T07:06:52.789Z,100120.94
2022-08-26T07:09:22.221Z,100115.81
2022-08-26T07:11:51.565Z,100108.22
2022-08-26T07:14:21.443Z,100122.13
2022-08-26T07:16:50.747Z,100096.16
2022-08-26T07:19:31.172Z,100109.09
2022-08-26T07:22:04.818Z,100115.72
2022-08-26T07:24:36.724Z,100100.78
2022-08-26T07:27:07.439Z,100111.28
2022-08-26T07:29:38.000Z,100118.28
2022-08-26T07:32:06.534Z,100109.50
2022-08-26T07:34:34.119Z,100107.50
2022-08-26T07:37:02.140Z,100109.59
2022-08-26T07:39:31.500Z,100118.84
2022-08-26T07:42:03.816Z,100120.00
2022-08-26T07:44:37.061Z,100120.16
2022-08-26T07:47:10.393Z,100114.88
2022-08-26T07:49:52.875Z,100109.22
2022-08-26T07:52:26.018Z,100110.66
2022-08-26T07:54:55.128Z,100106.50
2022-08-26T07:57:25.343Z,100121.81
2022-08-26T07:59:55.386Z,100090.72
2022-08-26T08:02:25.334Z,100114.59
2022-08-26T08:04:53.678Z,100116.63
2022-08-26T08:07:38.520Z,100117.28
2022-08-26T08:10:20.849Z,100118.94
2022-08-26T08:12:54.598Z,100115.44
2022-08-26T08:15:26.893Z,100118.94
2022-08-26T08:18:00.194Z,100113.53
2022-08-26T08:20:31.067Z,100122.63
2022-08-26T08:23:04.357Z,100107.78
2022-08-26T08:25:34.569Z,100102.03
2022-08-26T08:28:02.180Z,100115.94
2022-08-26T08:30:29.890Z,100117.09
2022-08-26T08:32:57.052Z,100120.06
2022-08-26T08:35:26.576Z,100089.22
2022-08-26T08:37:57.236Z,100111.09
2022-08-26T08:40:26.609Z,100124.38
2022-08-26T08:43:30.806Z,100110.72
2022-08-26T08:46:11.311Z,100116.19
2022-08-26T08:48:43.992Z,100120.09
2022-08-26T08:51:16.976Z,100107.16
2022-08-26T08:53:49.748Z,100112.47
2022-08-26T08:56:46.964Z,100109.88
2022-08-26T08:59:24.363Z,100107.66
2022-08-26T09:01:52.276Z,100107.41
2022-08-26T09:04:39.045Z,100101.28
2022-08-26T09:07:10.325Z,100099.19
2022-08-26T09:09:52.466Z,100089.59
2022-08-26T09:12:29.378Z,100098.56
2022-08-26T09:15:31.661Z,100084.53
2022-08-26T09:18:35.589Z,100094.94
2022-08-26T09:21:06.916Z,100098.53
2022-08-26T09:23:36.689Z,100074.38
2022-08-26T09:26:16.088Z,100083.41
2022-08-26T09:28:48.353Z,100080.78
2022-08-26T09:31:25.428Z,100079.00
2022-08-26T09:34:17.576Z,100084.25
2022-08-26T09:36:55.245Z,100076.06
2022-08-26T09:39:28.415Z,100080.44
2022-08-26T09:42:23.684Z,100057.16
2022-08-26T09:45:07.777Z,100049.78
2022-08-26T09:47:48.107Z,100080.03
2022-08-26T09:50:30.611Z,100081.44
2022-08-26T09:53:05.437Z,100086.13
2022-08-26T09:55:37.739Z,100062.63
2022-08-26T09:58:08.752Z,100078.50
2022-08-26T10:00:42.067Z,100073.00
2022-08-26T10:03:25.499Z,100053.31
2022-08-26T10:06:01.755Z,100083.69
2022-08-26T10:08:33.978Z,100072.53
2022-08-26T10:11:07.563Z,100036.25
2022-08-26T10:13:41.141Z,100071.94
2022-08-26T10:16:37.829Z,100050.94
2022-08-26T10:19:16.408Z,100067.00
2022-08-26T10:22:02.000Z,100046.44
2022-08-26T10:25:09.426Z,100066.13
2022-08-26T10:32:09.463Z,100059.03
2022-08-26T10:35:08.701Z,100016.16
2022-08-26T10:37:54.246Z,100054.81
2022-08-26T10:40:44.994Z,100003.13
2022-08-26T10:43:56.595Z,100053.06
2022-08-26T10:46:30.810Z,100047.69
2022-08-26T10:49:09.456Z,99936.03
2022-08-26T10:51:47.712Z,99985.84
2022-08-26T10:54:42.467Z,99997.91
2022-08-26T10:57:28.122Z,100041.16
2022-08-26T11:00:37.732Z,100029.91
2022-08-26T11:03:35.787Z,100036.00
2022-08-26T11:06:25.921Z,100037.81
2022-08-26T11:09:12.223Z,99995.94
2022-08-26T11:11:46.813Z,100024.53
2022-08-26T11:14:29.358Z,100024.88
2022-08-26T11:16:58.922Z,100031.28
2022-08-26T11:20:01.197Z,100020.00
2022-08-26T11:22:38.136Z,100013.78
2022-08-26T11:25:19.152Z,100016.78
2022-08-26T11:27:51.223Z,100016.94
2022-08-26T11:30:24.150Z,100012.50
2022-08-26T11:32:54.240Z,100010.59
2022-08-26T11:35:21.787Z,100010.88
2022-08-26T11:37:54.522Z,100015.38
2022-08-26T11:40:30.579Z,99996.38
2022-08-26T11:43:01.188Z,100007.78
2022-08-26T11:45:39.349Z,100004.31
2022-08-26T11:48:36.767Z,99987.13
2022-08-26T11:51:24.755Z,99999.00
2022-08-26T11:53:52.094Z,99989.16
2022-08-26T11:56:31.597Z,99971.94
2022-08-26T11:59:02.591Z,99973.56
2022-08-26T12:01:38.077Z,99990.94
2022-08-26T12:04:17.575Z,99977.31
2022-08-26T12:06:51.180Z,99991.00
2022-08-26T12:09:24.972Z,99980.22
2022-08-26T12:11:58.007Z,99987.53
2022-08-26T12:14:27.750Z,99984.41
2022-08-26T12:16:55.156Z,99973.84
2022-08-26T12:19:27.468Z,99982.16
2022-08-26T12:22:14.154Z,99977.53
2022-08-26T12:24:54.429Z,99961.28
2022-08-26T12:27:28.076Z,99986.31
2022-08-26T12:30:02.951Z,99976.22
2022-08-26T12:32:35.121Z,99982.50
2022-08-26T12:37:40.319Z,99974.28
2022-08-26T12:40:26.363Z,99974.09
2022-08-26T12:42:53.878Z,99984.28
2022-08-26T12:45:38.275Z,99977.03
2022-08-26T12:48:11.218Z,99975.81
2022-08-26T12:50:46.205Z,99971.88
2022-08-26T12:53:25.913Z,99962.06
2022-08-26T12:55:54.544Z,99967.91
2022-08-26T12:58:36.635Z,99963.88
2022-08-26T13:01:07.104Z,99962.84
2022-08-26T13:03:34.836Z,99957.66
2022-08-26T13:06:15.499Z,99956.56
2022-08-26T13:08:46.187Z,99964.25
2022-08-26T13:11:20.676Z,99963.25
2022-08-26T13:14:12.281Z,99958.78
2022-08-26T13:16:49.412Z,99953.97
2022-08-26T13:19:23.923Z,99948.53
2022-08-26T13:21:55.609Z,99964.38
2022-08-26T13:24:34.455Z,99959.28
2022-08-26T13:27:03.568Z,99962.13
2022-08-26T13:29:32.080Z,99968.84
2022-08-26T13:31:59.867Z,99965.22
2022-08-26T13:34:27.927Z,99951.63
2022-08-26T13:36:56.507Z,99958.06
2022-08-26T13:39:24.520Z,99938.16
2022-08-26T13:41:52.244Z,99952.06
2022-08-26T13:44:19.497Z,99948.63
2022-08-26T13:46:46.742Z,99925.50
2022-08-26T13:49:14.274Z,99924.84
2022-08-26T13:51:42.117Z,99933.50
2022-08-26T13:54:10.146Z,99912.19
2022-08-26T13:56:37.661Z,99931.13
2022-08-26T13:59:06.567Z,99944.16
2022-08-26T14:01:34.653Z,99933.47
2022-08-26T14:04:03.262Z,99929.19
2022-08-26T14:06:30.649Z,99920.44
2022-08-26T14:08:57.986Z,99924.47
2022-08-26T14:11:25.252Z,99941.28
2022-08-26T14:13:52.630Z,99928.00
2022-08-26T14:16:33.525Z,99940.56
2022-08-26T14:19:01.837Z,99933.34
2022-08-26T14:21:31.327Z,99936.22
2022-08-26T14:24:01.012Z,99956.78
2022-08-26T14:26:30.202Z,99941.03
2022-08-26T14:29:00.136Z,99924.72
2022-08-26T14:31:32.127Z,99947.22
2022-08-26T14:34:05.511Z,99944.88
2022-08-26T14:36:42.835Z,99949.25
2022-08-26T14:39:28.121Z,99836.72
2022-08-26T14:41:56.773Z,99935.78
2022-08-26T14:44:34.752Z,99952.84
2022-08-26T14:47:06.850Z,99949.75
2022-08-26T14:49:35.168Z,99942.22
2022-08-26T14:52:03.301Z,99945.00
2022-08-26T14:54:30.663Z,99936.19
2022-08-26T14:57:05.053Z,99949.53
2022-08-26T14:59:38.461Z,99945.00
2022-08-26T15:02:07.445Z,99925.06
2022-08-26T15:04:35.504Z,99940.88
2022-08-26T15:07:06.796Z,99948.84
2022-08-26T15:09:43.641Z,99909.56
2022-08-26T15:12:15.082Z,99950.16
2022-08-26T15:14:44.487Z,99928.31
2022-08-26T15:17:13.440Z,99954.91
2022-08-26T15:19:41.428Z,99914.22
2022-08-26T15:22:09.068Z,99950.81
2022-08-26T15:24:37.160Z,99954.44
2022-08-26T15:27:04.428Z,99953.03
2022-08-26T15:29:32.848Z,99957.00
2022-08-26T15:32:04.268Z,99943.00
2022-08-26T15:34:32.129Z,99929.69
2022-08-26T15:36:59.543Z,99943.00
2022-08-26T15:39:26.501Z,99947.22
2022-08-26T15:41:56.287Z,99943.25
2022-08-26T15:44:23.489Z,99935.91
2022-08-26T15:46:54.256Z,99943.28
2022-08-26T15:49:23.752Z,99963.31
2022-08-26T15:51:50.801Z,99955.75
2022-08-26T15:54:21.021Z,99945.72
2022-08-26T15:56:50.789Z,99957.06
2022-08-26T15:59:18.135Z,99955.22
2022-08-26T16:01:46.605Z,99950.16
2022-08-26T16:04:14.328Z,99943.06
2022-08-26T16:06:43.577Z,99955.34
2022-08-26T16:09:11.048Z,99960.06
2022-08-26T16:11:38.235Z,99958.91
2022-08-26T16:14:06.327Z,99952.75
2022-08-26T16:16:33.415Z,99955.59
2022-08-26T16:19:25.961Z,99962.44
2022-08-26T16:21:53.268Z,99959.63
2022-08-26T16:24:25.895Z,99968.41
2022-08-26T16:26:55.696Z,99960.78
2022-08-26T16:29:26.769Z,99956.78
2022-08-26T16:31:54.858Z,99938.50
2022-08-26T16:34:22.241Z,99972.13
2022-08-26T16:36:49.278Z,99972.84
2022-08-26T16:39:16.387Z,99976.63
2022-08-26T16:41:44.404Z,99975.00
2022-08-26T16:44:12.160Z,99974.03
2022-08-26T16:46:39.827Z,99954.94
2022-08-26T16:49:06.955Z,99952.44
2022-08-26T16:51:38.523Z,99977.06
2022-08-26T16:54:07.702Z,99963.16
2022-08-26T16:56:36.198Z,99988.06
2022-08-26T16:59:08.199Z,99966.66
2022-08-26T17:01:35.852Z,99975.16
2022-08-26T17:04:03.948Z,99972.88
2022-08-26T17:06:30.955Z,99954.19
2022-08-26T17:08:57.938Z,99967.84
2022-08-26T17:11:25.043Z,99986.03
2022-08-26T17:13:52.276Z,99962.22
2022-08-26T17:16:22.247Z,99979.13
2022-08-26T17:18:52.066Z,99966.59
2022-08-26T17:21:19.154Z,99978.63
2022-08-26T17:23:46.223Z,99985.25
2022-08-26T17:26:13.303Z,99979.28
2022-08-26T17:28:40.757Z,99974.06
2022-08-26T17:31:09.623Z,99971.38
2022-08-26T17:33:37.235Z,99980.25
2022-08-26T17:36:07.696Z,99969.66
2022-08-26T17:38:35.884Z,99970.06
2022-08-26T17:41:03.534Z,99975.47
2022-08-26T17:43:31.491Z,99975.47
2022-08-26T17:46:06.928Z,99952.16
2022-08-26T17:48:38.819Z,99961.81
2022-08-26T17:51:11.180Z,99958.34
2022-08-26T17:53:38.930Z,99960.19
2022-08-26T17:56:09.025Z,99965.47
2022-08-26T17:58:36.983Z,99974.19
2022-08-26T18:01:06.052Z,99961.81
2022-08-26T18:03:33.901Z,99973.22
2022-08-26T18:06:01.430Z,99947.88
2022-08-26T18:08:28.666Z,99963.50
2022-08-26T18:10:55.653Z,99970.78
2022-08-26T18:13:22.746Z,99952.94
2022-08-26T18:15:49.993Z,99963.94
2022-08-26T18:18:17.049Z,99971.25
2022-08-26T18:20:45.248Z,99966.97
2022-08-26T18:23:13.309Z,99964.69
2022-08-26T18:25:44.170Z,99972.47
2022-08-26T18:28:11.671Z,99956.63
2022-08-26T18:30:41.390Z,99965.28
2022-08-26T18:33:11.346Z,99972.78
2022-08-26T18:35:41.064Z,99958.59
2022-08-26T18:38:11.924Z,99951.88
2022-08-26T18:40:43.794Z,99970.03
2022-08-26T18:43:12.233Z,99947.09
2022-08-26T18:45:39.453Z,99951.84
2022-08-26T18:48:06.847Z,99966.38
2022-08-26T18:50:37.618Z,99955.00
2022-08-26T18:53:04.789Z,99967.38
2022-08-26T18:55:32.044Z,99959.34
2022-08-26T18:57:59.579Z,99982.63
2022-08-26T19:00:27.757Z,99968.97
2022-08-26T19:02:56.139Z,99963.09
2022-08-26T19:05:23.401Z,99974.44
2022-08-26T19:07:53.879Z,99977.88
2022-08-26T19:10:21.743Z,99986.34
2022-08-26T19:12:51.909Z,99986.56
2022-08-26T19:15:20.036Z,99969.88
2022-08-26T19:17:48.327Z,99994.72
2022-08-26T19:23:31.754Z,99935.06
2022-08-26T19:26:07.234Z,100004.75
2022-08-26T19:28:35.263Z,99997.34
2022-08-26T19:31:03.608Z,100013.19
2022-08-26T19:33:31.254Z,99961.91
2022-08-26T19:36:03.668Z,99980.19
2022-08-26T19:38:34.781Z,100009.00
2022-08-26T19:41:02.008Z,100010.56
2022-08-26T19:43:34.058Z,100014.44
2022-08-26T19:46:01.516Z,100021.34
2022-08-26T19:48:29.562Z,100021.47
2022-08-26T19:50:56.903Z,100029.63
2022-08-26T19:53:23.913Z,100015.78
2022-08-26T19:55:51.758Z,100012.88
2022-08-26T19:58:18.796Z,100014.38
2022-08-26T20:00:46.037Z,100022.94
2022-08-26T20:03:15.902Z,100032.22
2022-08-26T20:05:44.826Z,100020.03
2022-08-26T20:08:22.421Z,100032.22
2022-08-26T20:10:50.823Z,100029.63
2022-08-26T20:13:19.140Z,100034.63
2022-08-26T20:15:46.421Z,100026.19
2022-08-26T20:18:32.018Z,100047.00
2022-08-26T20:21:19.724Z,100038.97
2022-08-26T20:23:49.184Z,100041.81
2022-08-26T20:26:19.346Z,100048.97
2022-08-26T20:28:47.346Z,100014.56
2022-08-26T20:31:19.474Z,100050.44
2022-08-26T20:33:47.083Z,100046.59
2022-08-26T20:36:15.530Z,100034.72
2022-08-26T20:38:43.189Z,100037.34
2022-08-26T20:41:10.670Z,100035.78
2022-08-26T20:43:37.846Z,100025.09
2022-08-26T20:46:08.305Z,100044.38
2022-08-26T20:48:41.559Z,100045.28
2022-08-26T20:51:09.653Z,100037.63
2022-08-26T20:53:37.544Z,100058.91
2022-08-26T20:56:07.514Z,100058.63
2022-08-26T20:58:34.959Z,100055.88
2022-08-26T21:01:07.342Z,100036.69
2022-08-26T21:03:36.806Z,100041.41
2022-08-26T21:06:04.189Z,100047.25
2022-08-26T21:08:33.147Z,100056.25
2022-08-26T21:11:01.971Z,100032.19
2022-08-26T21:13:39.189Z,100045.63
2022-08-26T21:16:15.899Z,100045.81
2022-08-26T21:18:43.265Z,100052.41
2022-08-26T21:21:10.609Z,100042.97
2022-08-26T21:23:37.941Z,100039.94
2022-08-26T21:26:08.615Z,100030.28
2022-08-26T21:28:39.569Z,100029.50
2022-08-26T21:31:08.552Z,100038.41
2022-08-26T21:33:36.632Z,100015.22
2022-08-26T21:36:04.714Z,100048.66
2022-08-26T21:38:32.860Z,100031.34
2022-08-26T21:41:15.360Z,100037.69
2022-08-26T21:43:43.407Z,100021.81
2022-08-26T21:46:16.963Z,100041.69
2022-08-26T21:48:50.328Z,100040.91
2022-08-26T21:51:20.656Z,100029.34
2022-08-26T21:53:48.264Z,100043.44
2022-08-26T21:56:18.133Z,100045.34
2022-08-26T21:58:45.755Z,100050.75
2022-08-26T22:01:16.111Z,100037.72
2022-08-26T22:03:47.525Z,100038.50
2022-08-26T22:06:17.590Z,100061.91
2022-08-26T22:08:44.691Z,100062.06
2022-08-26T22:11:12.925Z,100049.28
2022-08-26T22:13:41.582Z,100056.84
2022-08-26T22:16:09.615Z,100046.91
2022-08-26T22:18:37.716Z,100061.59
2022-08-26T22:21:08.515Z,100037.53
2022-08-26T22:23:37.436Z,100048.03
2022-08-26T22:26:06.813Z,100065.63
2022-08-26T22:28:35.033Z,100060.97
2022-08-26T22:31:02.253Z,100057.75
2022-08-26T22:33:29.735Z,100026.97
2022-08-26T22:35:57.306Z,100057.22
2022-08-26T22:38:25.167Z,100044.97
2022-08-26T22:40:56.625Z,100040.84
2022-08-26T22:43:25.830Z,100055.75
2022-08-26T22:45:53.550Z,100024.97
2022-08-26T22:48:27.015Z,100046.78
2022-08-26T22:51:00.131Z,100041.38
2022-08-26T22:53:28.016Z,100042.41
2022-08-26T22:55:55.104Z,100032.69
2022-08-26T22:58:23.038Z,100046.81
2022-08-26T23:00:57.983Z,100037.13
2022-08-26T23:03:27.419Z,100033.75
2022-08-26T23:05:58.389Z,100042.09
2022-08-26T23:08:26.831Z,100029.63
2022-08-26T23:10:54.030Z,100020.03
2022-08-26T23:13:21.256Z,100032.72
2022-08-26T23:15:48.358Z,100022.06
2022-08-26T23:18:16.546Z,100044.31
2022-08-26T23:20:43.998Z,100041.06
2022-08-26T23:23:11.167Z,100033.91
2022-08-26T23:25:38.280Z,100039.19
2022-08-26T23:28:08.640Z,100043.06
2022-08-26T23:30:35.759Z,100032.84
2022-08-26T23:33:02.925Z,100030.69
2022-08-26T23:35:30.207Z,100036.88
2022-08-26T23:37:58.994Z,100043.53
2022-08-26T23:40:32.854Z,100035.22
2022-08-26T23:43:03.356Z,100025.94
2022-08-26T23:45:31.967Z,100023.19
2022-08-26T23:47:59.420Z,100028.75
2022-08-26T23:50:49.450Z,100020.63
2022-08-26T23:53:20.641Z,100037.84
2022-08-26T23:55:50.691Z,100018.53
2022-08-26T23:58:20.432Z,100040.34
